Time;durP1;ratioP1;P1;durP2;ratioP2;P2;SDS_P1;SDS_P2;PMS_P1;PMS_P2;Temp;Humidity;BMP_temperature;BMP_pressure;BME280_temperature;BME280_humidity;BME280_pressure;Samples;Min_cycle;Max_cycle;Signal;HPM_P1;HPM_P2
2022/12/26 00:00:54;;;;;;;1.80;1.70;;;;;;;;;;5113977;28;20260;-84
2022/12/26 00:03:21;;;;;;;2.23;1.77;;;;;;;;;;5113359;28;20248;-83
2022/12/26 00:05:48;;;;;;;2.20;1.93;;;;;;;;;;5096002;28;20237;-83
2022/12/26 00:08:14;;;;;;;1.60;1.50;;;;;;;;;;5113516;28;20223;-83
2022/12/26 00:10:43;;;;;;;1.57;1.10;;;;;;;;;;5113498;28;20694;-84
2022/12/26 00:13:11;;;;;;;1.60;1.50;;;;;;;;;;5113456;28;20211;-83
2022/12/26 00:15:40;;;;;;;2.07;1.73;;;;;;;;;;5100680;28;20228;-83
2022/12/26 00:18:07;;;;;;;1.30;1.20;;;;;;;;;;5099824;28;20207;-83
2022/12/26 00:20:33;;;;;;;2.27;2.07;;;;;;;;;;5113463;28;20207;-83
2022/12/26 00:23:01;;;;;;;4.80;3.53;;;;;;;;;;5100332;28;20264;-86
2022/12/26 00:25:28;;;;;;;5.43;4.27;;;;;;;;;;5104259;28;20192;-84
2022/12/26 00:27:55;;;;;;;5.13;4.03;;;;;;;;;;5113514;28;20207;-85
2022/12/26 00:30:24;;;;;;;3.83;3.20;;;;;;;;;;5112850;28;20673;-84
2022/12/26 00:32:51;;;;;;;2.23;1.73;;;;;;;;;;5111483;28;20285;-83
2022/12/26 00:35:18;;;;;;;7.13;3.40;;;;;;;;;;5110271;28;20211;-84
2022/12/26 00:37:45;;;;;;;7.13;3.33;;;;;;;;;;5101372;28;20624;-84
2022/12/26 00:40:13;;;;;;;4.53;3.83;;;;;;;;;;5113963;28;20208;-84
2022/12/26 00:42:40;;;;;;;6.07;4.13;;;;;;;;;;5112463;27;20252;-84
2022/12/26 00:45:10;;;;;;;4.63;3.93;;;;;;;;;;5111949;28;20218;-83
2022/12/26 00:47:38;;;;;;;2.63;2.27;;;;;;;;;;5112756;28;20752;-84
2022/12/26 00:50:07;;;;;;;2.80;2.47;;;;;;;;;;5098462;28;20219;-83
2022/12/26 00:52:34;;;;;;;3.20;1.93;;;;;;;;;;5111225;28;20284;-84
2022/12/26 00:55:01;;;;;;;1.93;1.73;;;;;;;;;;5113286;28;20594;-83
2022/12/26 00:57:27;;;;;;;3.57;2.40;;;;;;;;;;5112758;27;20616;-83
2022/12/26 00:59:54;;;;;;;7.50;5.47;;;;;;;;;;5109120;28;20258;-83
2022/12/26 01:02:39;;;;;;;8.00;5.23;;;;;;;;;;5103070;28;20208;-84
2022/12/26 01:05:10;;;;;;;24.13;14.10;;;;;;;;;;5098837;28;20286;-84
2022/12/26 01:07:38;;;;;;;10.07;5.97;;;;;;;;;;5112592;28;20207;-84
2022/12/26 01:10:07;;;;;;;7.10;3.37;;;;;;;;;;5112753;28;20208;-84
2022/12/26 01:12:33;;;;;;;3.13;1.67;;;;;;;;;;5097844;28;20296;-84
2022/12/26 01:15:01;;;;;;;2.43;1.93;;;;;;;;;;5111391;28;20207;-84
2022/12/26 01:17:29;;;;;;;33.87;16.50;;;;;;;;;;5110301;28;20218;-84
2022/12/26 01:19:56;;;;;;;40.40;24.07;;;;;;;;;;5100523;28;20207;-83
2022/12/26 01:22:25;;;;;;;33.03;18.23;;;;;;;;;;5111963;28;20750;-84
2022/12/26 01:24:54;;;;;;;51.17;23.37;;;;;;;;;;5112082;28;20645;-84
2022/12/26 01:27:21;;;;;;;23.63;12.80;;;;;;;;;;5112084;28;20212;-84
2022/12/26 01:29:48;;;;;;;5.57;4.10;;;;;;;;;;5112714;28;20218;-84
2022/12/26 01:32:15;;;;;;;15.00;8.50;;;;;;;;;;5091068;28;20232;-84
2022/12/26 01:34:42;;;;;;;6.93;4.27;;;;;;;;;;5101943;28;20207;-85
2022/12/26 01:37:12;;;;;;;13.53;8.47;;;;;;;;;;5111233;28;20264;-83
2022/12/26 01:39:41;;;;;;;12.90;8.77;;;;;;;;;;5108721;28;20276;-83
2022/12/26 01:42:13;;;;;;;12.07;7.77;;;;;;;;;;5111543;28;20252;-83
2022/12/26 01:44:59;;;;;;;28.00;15.33;;;;;;;;;;5110759;28;20203;-83
2022/12/26 01:47:38;;;;;;;16.60;8.87;;;;;;;;;;5099569;28;20206;-83
2022/12/26 01:50:07;;;;;;;29.67;15.43;;;;;;;;;;5108331;28;20203;-85
2022/12/26 01:52:38;;;;;;;28.93;15.63;;;;;;;;;;5100715;28;20766;-85
2022/12/26 01:55:09;;;;;;;16.37;8.07;;;;;;;;;;5106019;28;20199;-84
2022/12/26 01:57:40;;;;;;;12.20;7.77;;;;;;;;;;5098813;28;20292;-85
2022/12/26 02:00:09;;;;;;;7.90;4.57;;;;;;;;;;5110016;28;20249;-83
2022/12/26 02:05:32;;;;;;;5.00;2.83;;;;;;;;;;5110400;28;20208;-83
2022/12/26 02:05:34;;;;;;;2.97;1.87;;;;;;;;;;5100978;28;20203;-84
2022/12/26 02:08:04;;;;;;;2.40;2.17;;;;;;;;;;5107217;28;20200;-85
2022/12/26 02:10:36;;;;;;;2.77;1.87;;;;;;;;;;5101897;28;20294;-83
2022/12/26 02:13:03;;;;;;;1.87;1.63;;;;;;;;;;5110261;28;20228;-84
2022/12/26 02:15:31;;;;;;;1.80;1.70;;;;;;;;;;5111436;28;20302;-84
2022/12/26 02:17:58;;;;;;;4.70;1.70;;;;;;;;;;5110550;28;20252;-84
2022/12/26 02:20:26;;;;;;;1.80;1.70;;;;;;;;;;5082120;28;20204;-83
2022/12/26 02:23:26;;;;;;;1.93;1.67;;;;;;;;;;5110165;28;20684;-83
2022/12/26 02:26:19;;;;;;;1.83;1.73;;;;;;;;;;5111107;28;20646;-83
2022/12/26 02:29:18;;;;;;;1.20;1.20;;;;;;;;;;5091554;28;20651;-84
2022/12/26 02:31:50;;;;;;;19.70;11.87;;;;;;;;;;5085543;28;20304;-84
2022/12/26 02:34:20;;;;;;;36.30;21.40;;;;;;;;;;5109812;28;20191;-83
2022/12/26 02:36:59;;;;;;;5.57;4.23;;;;;;;;;;5103146;28;20207;-84
2022/12/26 02:39:38;;;;;;;1.83;1.57;;;;;;;;;;5097426;28;21049;-83
2022/12/26 02:42:14;;;;;;;3.57;2.70;;;;;;;;;;5106606;28;20641;-84
2022/12/26 02:47:33;;;;;;;4.10;2.87;;;;;;;;;;5098608;28;20293;-83
2022/12/26 03:15:21;;;;;;;26.30;15.63;;;;;;;;;;5104846;28;20276;-82
2022/12/26 03:17:50;;;;;;;19.93;14.27;;;;;;;;;;5114936;28;20257;-82
2022/12/26 03:20:20;;;;;;;33.43;23.33;;;;;;;;;;5103446;27;20204;-82
2022/12/26 03:22:50;;;;;;;32.30;17.67;;;;;;;;;;5099560;28;20207;-84
2022/12/26 03:28:09;;;;;;;2.20;2.00;;;;;;;;;;5103742;28;20207;-84
2022/12/26 03:30:50;;;;;;;26.70;15.63;;;;;;;;;;5101655;28;20309;-82
2022/12/26 03:36:04;;;;;;;13.90;9.20;;;;;;;;;;5102190;28;20260;-83
2022/12/26 03:38:35;;;;;;;6.43;5.07;;;;;;;;;;5100151;28;20204;-83
2022/12/26 04:20:56;;;;;;;2.93;2.27;;;;;;;;;;5099976;28;20697;-84
2022/12/26 04:45:51;;;;;;;2.63;2.03;;;;;;;;;;5100749;28;20299;-84
2022/12/26 04:51:03;;;;;;;2.47;2.10;;;;;;;;;;5113065;28;20205;-85
2022/12/26 04:53:29;;;;;;;5.93;4.30;;;;;;;;;;5112885;28;20231;-84
2022/12/26 04:55:56;;;;;;;4.73;3.80;;;;;;;;;;5108066;28;20211;-86
2022/12/26 04:58:26;;;;;;;4.17;3.27;;;;;;;;;;5112486;28;20666;-85
2022/12/26 05:09:32;;;;;;;2.43;2.23;;;;;;;;;;5113005;28;20289;-85
2022/12/26 05:11:54;;;;;;;14.60;10.90;;;;;;;;;;5116120;27;20320;-85
2022/12/26 05:14:23;;;;;;;13.93;12.07;;;;;;;;;;5111617;28;20191;-85
2022/12/26 05:30:38;;;;;;;6.70;3.33;;;;;;;;;;5111901;28;20268;-83
2022/12/26 05:35:50;;;;;;;5.00;2.70;;;;;;;;;;5100761;28;20226;-85
2022/12/26 05:38:17;;;;;;;3.40;2.87;;;;;;;;;;5110385;28;20635;-84
2022/12/26 05:40:44;;;;;;;3.60;2.63;;;;;;;;;;5102616;28;20204;-86
2022/12/26 05:43:11;;;;;;;6.67;5.40;;;;;;;;;;5104421;28;20288;-85
2022/12/26 05:45:40;;;;;;;18.23;10.10;;;;;;;;;;5092550;28;20200;-85
2022/12/26 05:48:07;;;;;;;14.67;8.97;;;;;;;;;;5094267;28;20214;-84
2022/12/26 05:50:34;;;;;;;6.70;5.10;;;;;;;;;;5093964;28;20280;-84
2022/12/26 05:53:02;;;;;;;7.13;4.63;;;;;;;;;;5109603;28;20231;-84
2022/12/26 05:55:30;;;;;;;10.57;8.47;;;;;;;;;;5105506;28;20931;-85
2022/12/26 05:57:58;;;;;;;6.53;5.70;;;;;;;;;;5108071;28;20207;-84
2022/12/26 06:00:25;;;;;;;5.53;5.03;;;;;;;;;;5113187;27;21924;-85
2022/12/26 06:02:54;;;;;;;4.27;3.97;;;;;;;;;;5120992;27;20214;-85
2022/12/26 06:05:20;;;;;;;3.37;3.03;;;;;;;;;;5102723;28;20246;-85
2022/12/26 06:07:48;;;;;;;2.73;2.33;;;;;;;;;;5109726;28;20199;-87
2022/12/26 06:10:15;;;;;;;4.53;2.77;;;;;;;;;;5095001;28;20209;-85
2022/12/26 06:12:42;;;;;;;3.90;3.30;;;;;;;;;;5108134;28;20771;-85
2022/12/26 06:15:11;;;;;;;4.27;3.57;;;;;;;;;;5111268;28;20280;-85
2022/12/26 06:17:39;;;;;;;6.87;5.87;;;;;;;;;;5090410;28;20207;-85
2022/12/26 06:20:09;;;;;;;13.77;10.30;;;;;;;;;;5101362;28;20261;-85
2022/12/26 06:22:36;;;;;;;12.70;8.87;;;;;;;;;;5110715;28;20211;-85
2022/12/26 06:25:05;;;;;;;6.10;5.43;;;;;;;;;;5102188;28;20218;-84
2022/12/26 06:27:32;;;;;;;8.70;6.07;;;;;;;;;;5123718;27;20586;-84
2022/12/26 06:29:58;;;;;;;6.20;4.97;;;;;;;;;;5113114;27;20622;-84
2022/12/26 06:32:25;;;;;;;24.43;17.37;;;;;;;;;;5104861;27;20222;-85
2022/12/26 06:34:52;;;;;;;42.73;26.60;;;;;;;;;;5113620;27;20195;-88
2022/12/26 06:37:21;;;;;;;32.33;20.90;;;;;;;;;;5093601;28;20207;-87
2022/12/26 06:39:49;;;;;;;24.83;16.30;;;;;;;;;;5100857;28;20204;-86
2022/12/26 06:42:17;;;;;;;15.67;12.00;;;;;;;;;;5106970;28;20226;-87
2022/12/26 06:44:44;;;;;;;108.60;55.10;;;;;;;;;;5105627;28;20210;-87
2022/12/26 06:47:11;;;;;;;22.57;12.77;;;;;;;;;;5111124;28;20207;-88
2022/12/26 06:49:39;;;;;;;7.50;4.33;;;;;;;;;;5100979;28;20242;-88
2022/12/26 06:52:07;;;;;;;6.67;4.10;;;;;;;;;;5107604;28;20212;-86
2022/12/26 06:54:36;;;;;;;83.80;47.30;;;;;;;;;;5111086;28;20298;-87
2022/12/26 06:57:03;;;;;;;82.77;54.67;;;;;;;;;;5107497;28;20203;-90
2022/12/26 06:59:31;;;;;;;86.67;47.80;;;;;;;;;;5105231;28;20199;-89
2022/12/26 07:01:58;;;;;;;55.53;36.33;;;;;;;;;;5107777;28;20211;-87
2022/12/26 07:04:27;;;;;;;148.83;84.53;;;;;;;;;;5100710;28;20298;-86
2022/12/26 07:06:55;;;;;;;115.87;68.57;;;;;;;;;;5113518;28;20220;-89
2022/12/26 07:09:23;;;;;;;43.53;31.07;;;;;;;;;;5111193;28;20665;-89
2022/12/26 07:11:55;;;;;;;34.90;20.97;;;;;;;;;;5095452;28;20257;-89
2022/12/26 07:14:22;;;;;;;33.27;24.23;;;;;;;;;;5101026;28;20228;-88
2022/12/26 07:16:49;;;;;;;25.03;19.60;;;;;;;;;;5115730;28;20231;-84
2022/12/26 07:19:27;;;;;;;14.63;12.57;;;;;;;;;;5116101;27;20208;-88
2022/12/26 07:21:59;;;;;;;14.67;12.43;;;;;;;;;;5105526;28;20207;-87
2022/12/26 07:24:27;;;;;;;15.70;12.67;;;;;;;;;;5109540;28;20219;-88
2022/12/26 07:26:56;;;;;;;14.37;12.97;;;;;;;;;;5111345;28;20207;-87
2022/12/26 07:29:29;;;;;;;12.63;10.90;;;;;;;;;;5109170;28;20207;-84
2022/12/26 07:31:57;;;;;;;13.53;10.30;;;;;;;;;;5105165;28;20203;-89
2022/12/26 07:34:25;;;;;;;11.37;10.13;;;;;;;;;;5109608;28;20223;-86
2022/12/26 07:36:53;;;;;;;9.53;8.53;;;;;;;;;;5110553;28;20208;-87
2022/12/26 07:39:26;;;;;;;8.70;7.70;;;;;;;;;;5111097;28;20641;-86
2022/12/26 07:41:58;;;;;;;8.93;8.00;;;;;;;;;;5096919;28;20686;-87
2022/12/26 07:44:26;;;;;;;10.97;8.83;;;;;;;;;;5114162;28;20203;-87
2022/12/26 07:46:53;;;;;;;12.30;10.33;;;;;;;;;;5102235;28;20203;-87
2022/12/26 07:49:22;;;;;;;17.80;13.23;;;;;;;;;;5114456;28;20265;-87
2022/12/26 07:51:52;;;;;;;15.00;13.43;;;;;;;;;;5114177;28;20732;-86
2022/12/26 07:54:20;;;;;;;17.33;12.20;;;;;;;;;;5112641;27;20222;-87
2022/12/26 07:56:47;;;;;;;14.30;10.23;;;;;;;;;;5124701;27;20766;-87
2022/12/26 07:59:17;;;;;;;13.80;10.37;;;;;;;;;;5100135;28;20211;-87
2022/12/26 08:01:44;;;;;;;12.23;9.83;;;;;;;;;;5106121;28;20204;-87
2022/12/26 08:04:12;;;;;;;12.30;9.30;;;;;;;;;;5103678;27;20200;-87
2022/12/26 08:06:40;;;;;;;10.07;7.80;;;;;;;;;;5111476;28;20207;-87
2022/12/26 08:09:10;;;;;;;9.83;8.13;;;;;;;;;;5110930;28;20289;-90
2022/12/26 08:11:37;;;;;;;8.57;7.40;;;;;;;;;;5100987;28;20219;-86
2022/12/26 08:14:05;;;;;;;9.57;7.70;;;;;;;;;;5118713;27;20693;-91
2022/12/26 08:16:34;;;;;;;7.93;7.13;;;;;;;;;;5113465;27;20671;-90
2022/12/26 08:19:04;;;;;;;8.70;6.10;;;;;;;;;;5109754;27;21684;-91
2022/12/26 08:21:32;;;;;;;7.37;6.50;;;;;;;;;;5108938;27;20268;-88
2022/12/26 08:23:59;;;;;;;6.03;5.53;;;;;;;;;;5102302;28;20348;-88
2022/12/26 08:26:26;;;;;;;6.30;5.70;;;;;;;;;;5095908;28;20211;-83
2022/12/26 08:28:57;;;;;;;6.20;5.40;;;;;;;;;;5115646;27;20692;-86
2022/12/26 08:31:24;;;;;;;6.77;5.50;;;;;;;;;;5126316;27;20661;-84
2022/12/26 08:33:55;;;;;;;4.53;3.40;;;;;;;;;;5115915;27;20293;-88
2022/12/26 08:36:23;;;;;;;6.07;5.23;;;;;;;;;;5114234;27;20315;-87
2022/12/26 08:38:51;;;;;;;4.67;3.97;;;;;;;;;;5121608;27;20218;-91
2022/12/26 08:41:19;;;;;;;6.87;4.03;;;;;;;;;;5113600;27;20202;-80
2022/12/26 08:43:49;;;;;;;4.03;2.70;;;;;;;;;;5110697;27;20196;-85
2022/12/26 08:46:16;;;;;;;2.80;2.60;;;;;;;;;;5109243;27;20760;-86
2022/12/26 08:48:43;;;;;;;2.13;1.70;;;;;;;;;;5113962;27;20204;-84
2022/12/26 08:51:13;;;;;;;3.07;2.77;;;;;;;;;;5107380;27;20200;-84
2022/12/26 08:53:45;;;;;;;2.47;2.27;;;;;;;;;;5110492;27;20662;-83
2022/12/26 08:56:15;;;;;;;2.47;2.27;;;;;;;;;;5106621;28;20199;-81
2022/12/26 08:58:42;;;;;;;3.30;2.90;;;;;;;;;;5106392;28;20576;-82
2022/12/26 09:01:11;;;;;;;3.73;3.13;;;;;;;;;;5110799;28;20235;-82
2022/12/26 09:03:40;;;;;;;2.40;2.20;;;;;;;;;;5112280;28;20217;-81
2022/12/26 09:06:08;;;;;;;2.27;2.13;;;;;;;;;;5109253;28;20208;-82
2022/12/26 09:08:36;;;;;;;3.43;3.13;;;;;;;;;;5110827;28;20283;-83
2022/12/26 09:11:04;;;;;;;2.97;2.70;;;;;;;;;;5108968;27;20204;-82
2022/12/26 09:13:32;;;;;;;4.63;3.23;;;;;;;;;;5107369;27;20662;-79
2022/12/26 09:16:07;;;;;;;15.40;7.90;;;;;;;;;;5101960;27;20643;-84
2022/12/26 09:18:34;;;;;;;5.27;2.90;;;;;;;;;;5096406;28;20203;-84
2022/12/26 09:21:02;;;;;;;3.90;2.93;;;;;;;;;;5105364;27;20311;-84
2022/12/26 09:23:31;;;;;;;3.67;3.37;;;;;;;;;;5105265;27;20299;-81
2022/12/26 09:26:06;;;;;;;4.17;3.07;;;;;;;;;;5110690;27;20196;-82
2022/12/26 09:28:34;;;;;;;4.37;3.97;;;;;;;;;;5101420;28;20207;-80
2022/12/26 09:31:03;;;;;;;4.43;3.53;;;;;;;;;;5104944;28;20208;-81
2022/12/26 09:33:32;;;;;;;4.20;3.10;;;;;;;;;;5111098;28;20215;-81
2022/12/26 09:35:59;;;;;;;3.87;2.90;;;;;;;;;;5109569;28;20654;-81
2022/12/26 09:38:29;;;;;;;4.77;3.43;;;;;;;;;;5111359;28;20196;-81
2022/12/26 09:41:12;;;;;;;8.17;4.20;;;;;;;;;;5112871;27;20248;-83
2022/12/26 09:43:50;;;;;;;8.37;5.60;;;;;;;;;;5112086;27;20232;-82
2022/12/26 09:46:24;;;;;;;5.73;3.87;;;;;;;;;;5094698;28;20681;-83
2022/12/26 09:48:57;;;;;;;16.50;10.77;;;;;;;;;;5116585;27;20206;-82
2022/12/26 09:51:25;;;;;;;11.47;7.07;;;;;;;;;;5114982;27;20244;-82
2022/12/26 09:53:52;;;;;;;11.20;7.43;;;;;;;;;;5108042;27;20224;-82
2022/12/26 09:56:22;;;;;;;23.50;16.33;;;;;;;;;;5112602;27;20204;-82
2022/12/26 09:58:51;;;;;;;11.00;7.70;;;;;;;;;;5109165;27;20198;-82
2022/12/26 10:01:19;;;;;;;4.67;3.80;;;;;;;;;;5115332;27;20207;-82
2022/12/26 10:03:49;;;;;;;7.47;5.47;;;;;;;;;;5116148;27;20622;-82
2022/12/26 10:06:21;;;;;;;7.00;5.30;;;;;;;;;;5109785;27;20686;-81
2022/12/26 10:09:15;;;;;;;7.13;5.70;;;;;;;;;;5103973;28;20211;-82
2022/12/26 10:11:57;;;;;;;7.93;5.87;;;;;;;;;;5107082;27;20256;-83
2022/12/26 10:14:28;;;;;;;3.60;3.30;;;;;;;;;;5111391;27;20227;-83
2022/12/26 10:17:03;;;;;;;15.67;7.57;;;;;;;;;;5111852;27;20223;-82
2022/12/26 10:19:48;;;;;;;8.30;5.60;;;;;;;;;;5113017;27;20203;-82
2022/12/26 10:22:31;;;;;;;5.47;3.73;;;;;;;;;;5096093;28;20206;-87
2022/12/26 10:25:00;;;;;;;9.73;7.20;;;;;;;;;;5104366;28;20199;-81
2022/12/26 10:27:32;;;;;;;91.33;52.93;;;;;;;;;;5105216;28;20202;-81
2022/12/26 10:30:02;;;;;;;28.37;18.80;;;;;;;;;;5110792;28;20207;-81
2022/12/26 10:32:35;;;;;;;20.53;13.30;;;;;;;;;;5099168;27;20250;-82
2022/12/26 10:35:19;;;;;;;9.47;7.00;;;;;;;;;;5113060;28;20225;-81
2022/12/26 10:37:49;;;;;;;14.30;8.90;;;;;;;;;;5109331;28;20214;-81
2022/12/26 10:40:20;;;;;;;5.10;4.17;;;;;;;;;;5115289;28;20196;-81
2022/12/26 10:42:53;;;;;;;8.93;8.13;;;;;;;;;;5107150;28;20260;-88
2022/12/26 10:45:24;;;;;;;4.07;3.70;;;;;;;;;;5096641;28;20199;-82
2022/12/26 10:47:54;;;;;;;4.93;4.20;;;;;;;;;;5109858;28;20636;-86
2022/12/26 10:50:23;;;;;;;9.83;6.47;;;;;;;;;;5109629;28;20207;-82
2022/12/26 10:52:51;;;;;;;8.73;5.97;;;;;;;;;;5110786;28;20195;-82
2022/12/26 10:55:19;;;;;;;7.57;6.23;;;;;;;;;;5108812;28;20276;-83
2022/12/26 10:57:50;;;;;;;7.47;6.50;;;;;;;;;;5108888;28;20203;-83
2022/12/26 11:00:20;;;;;;;9.80;5.27;;;;;;;;;;5102660;28;20686;-82
2022/12/26 11:03:02;;;;;;;5.73;4.80;;;;;;;;;;5102848;28;20207;-82
2022/12/26 11:05:29;;;;;;;6.70;5.97;;;;;;;;;;5111817;28;20617;-82
2022/12/26 11:08:07;;;;;;;9.47;7.63;;;;;;;;;;5088772;28;20227;-82
2022/12/26 11:10:34;;;;;;;11.50;10.30;;;;;;;;;;5106718;28;20207;-82
2022/12/26 11:13:05;;;;;;;5.00;4.60;;;;;;;;;;5108382;27;20196;-82
2022/12/26 11:15:35;;;;;;;7.40;4.30;;;;;;;;;;5112869;28;20308;-82
2022/12/26 11:18:16;;;;;;;10.27;9.00;;;;;;;;;;5113069;28;20207;-82
2022/12/26 11:20:46;;;;;;;12.30;7.80;;;;;;;;;;5112993;28;20288;-83
2022/12/26 11:23:23;;;;;;;10.27;4.80;;;;;;;;;;5108359;28;20681;-82
2022/12/26 11:25:52;;;;;;;4.17;3.70;;;;;;;;;;5115825;27;20657;-82
2022/12/26 11:28:30;;;;;;;16.33;13.67;;;;;;;;;;5100574;27;20286;-82
2022/12/26 11:30:57;;;;;;;10.40;5.37;;;;;;;;;;5114266;27;20203;-82
2022/12/26 11:33:27;;;;;;;8.63;7.83;;;;;;;;;;5107369;27;20627;-82
2022/12/26 11:36:03;;;;;;;21.10;10.87;;;;;;;;;;5112602;27;20208;-82
2022/12/26 11:38:34;;;;;;;16.87;11.67;;;;;;;;;;5107634;28;20294;-82
2022/12/26 11:43:46;;;;;;;14.17;8.47;;;;;;;;;;5082964;28;20203;-82
2022/12/26 11:46:13;;;;;;;14.10;9.70;;;;;;;;;;5106933;28;20210;-83
2022/12/26 11:48:48;;;;;;;12.87;8.77;;;;;;;;;;5113423;28;20564;-82
2022/12/26 11:51:16;;;;;;;23.27;16.37;;;;;;;;;;5112382;28;20298;-82
2022/12/26 11:53:43;;;;;;;28.90;17.47;;;;;;;;;;5116355;27;20195;-82
2022/12/26 11:56:10;;;;;;;16.10;12.13;;;;;;;;;;5115475;27;20251;-82
2022/12/26 11:58:37;;;;;;;12.43;9.93;;;;;;;;;;5115027;27;20198;-82
2022/12/26 12:01:09;;;;;;;10.97;8.57;;;;;;;;;;5103385;28;20757;-82
2022/12/26 12:03:38;;;;;;;9.40;7.40;;;;;;;;;;5112289;27;20223;-81
2022/12/26 12:06:15;;;;;;;8.53;6.03;;;;;;;;;;5107183;27;20206;-83
2022/12/26 12:08:45;;;;;;;38.20;22.33;;;;;;;;;;5107148;27;20207;-83
2022/12/26 12:11:25;;;;;;;5.30;4.80;;;;;;;;;;5112922;27;20202;-82
2022/12/26 12:14:06;;;;;;;5.03;3.93;;;;;;;;;;5097303;27;20206;-82
2022/12/26 12:16:43;;;;;;;23.87;18.10;;;;;;;;;;5112907;27;20224;-82
2022/12/26 12:19:21;;;;;;;35.27;22.63;;;;;;;;;;5109130;27;20762;-81
2022/12/26 12:22:04;;;;;;;21.63;15.37;;;;;;;;;;5112748;28;20214;-82
2022/12/26 12:24:43;;;;;;;9.00;7.70;;;;;;;;;;5108461;27;20201;-82
2022/12/26 12:27:14;;;;;;;4.53;3.77;;;;;;;;;;5111774;27;20204;-82
2022/12/26 12:30:14;;;;;;;11.63;10.43;;;;;;;;;;5102438;28;20212;-82
2022/12/26 12:32:58;;;;;;;5.80;4.97;;;;;;;;;;5106599;28;20204;-82
2022/12/26 12:35:38;;;;;;;10.20;9.20;;;;;;;;;;5111839;28;20231;-82
2022/12/26 12:38:19;;;;;;;8.13;7.30;;;;;;;;;;5099258;28;20195;-82
2022/12/26 12:40:50;;;;;;;4.00;3.60;;;;;;;;;;5112538;27;20203;-83
2022/12/26 12:43:21;;;;;;;3.30;2.97;;;;;;;;;;5112435;28;20199;-82
2022/12/26 12:45:55;;;;;;;3.37;3.10;;;;;;;;;;5112094;28;20264;-82
2022/12/26 12:48:55;;;;;;;5.43;4.80;;;;;;;;;;5112207;28;20210;-82
2022/12/26 12:51:28;;;;;;;5.63;5.13;;;;;;;;;;5101675;28;20235;-82
2022/12/26 12:54:18;;;;;;;5.03;4.17;;;;;;;;;;5112875;28;20203;-81
2022/12/26 12:56:49;;;;;;;12.97;10.63;;;;;;;;;;5112728;28;20207;-81
2022/12/26 12:59:27;;;;;;;16.47;9.67;;;;;;;;;;5112801;28;20214;-85
2022/12/26 13:01:57;;;;;;;13.10;10.40;;;;;;;;;;5112145;28;20206;-81
2022/12/26 13:04:34;;;;;;;9.67;8.00;;;;;;;;;;5102447;28;20283;-82
2022/12/26 13:07:05;;;;;;;4.30;3.77;;;;;;;;;;5112691;28;20203;-81
2022/12/26 13:09:36;;;;;;;7.27;6.57;;;;;;;;;;5112530;28;20207;-82
2022/12/26 13:12:05;;;;;;;7.07;4.60;;;;;;;;;;5112254;28;20207;-82
2022/12/26 13:14:36;;;;;;;4.60;4.03;;;;;;;;;;5112260;28;20227;-81
2022/12/26 13:17:07;;;;;;;5.90;4.17;;;;;;;;;;5112191;28;20231;-82
2022/12/26 13:19:40;;;;;;;6.10;4.80;;;;;;;;;;5112553;28;20636;-82
2022/12/26 13:22:25;;;;;;;7.33;5.53;;;;;;;;;;5112057;27;20686;-81
2022/12/26 13:24:55;;;;;;;7.30;6.23;;;;;;;;;;5100322;28;20249;-81
2022/12/26 13:27:25;;;;;;;13.63;10.57;;;;;;;;;;5111813;28;20264;-81
2022/12/26 13:29:52;;;;;;;7.43;6.60;;;;;;;;;;5111526;28;20208;-82
2022/12/26 13:32:24;;;;;;;9.10;6.50;;;;;;;;;;5112167;28;20207;-82
2022/12/26 13:34:53;;;;;;;10.97;7.17;;;;;;;;;;5111812;28;20234;-82
2022/12/26 13:37:54;;;;;;;9.27;5.37;;;;;;;;;;5111874;28;20192;-81
2022/12/26 13:40:25;;;;;;;8.77;4.80;;;;;;;;;;5111508;28;20278;-81
2022/12/26 13:45:59;;;;;;;6.23;3.97;;;;;;;;;;5111595;28;20794;-81
2022/12/26 13:49:06;;;;;;;3.83;3.40;;;;;;;;;;5107526;27;20195;-82
2022/12/26 13:51:52;;;;;;;6.97;5.33;;;;;;;;;;5107108;28;20245;-81
2022/12/26 13:54:20;;;;;;;16.27;12.63;;;;;;;;;;5106956;28;20261;-81
2022/12/26 13:57:13;;;;;;;44.40;33.33;;;;;;;;;;5109677;28;20199;-82
2022/12/26 13:59:44;;;;;;;50.70;37.33;;;;;;;;;;5107318;28;20660;-82
2022/12/26 14:02:26;;;;;;;24.30;18.53;;;;;;;;;;5097713;27;20199;-82
2022/12/26 14:05:08;;;;;;;21.60;16.97;;;;;;;;;;5110572;27;20203;-81
2022/12/26 14:07:45;;;;;;;15.10;11.93;;;;;;;;;;5109819;28;20237;-81
2022/12/26 14:10:16;;;;;;;29.67;20.13;;;;;;;;;;5097673;28;20588;-81
2022/12/26 14:12:52;;;;;;;21.50;17.10;;;;;;;;;;5109341;28;20210;-82
2022/12/26 14:15:25;;;;;;;53.97;39.73;;;;;;;;;;5111202;27;20582;-81
2022/12/26 14:18:13;;;;;;;64.30;47.30;;;;;;;;;;5109153;28;20211;-82
2022/12/26 14:20:45;;;;;;;126.40;74.90;;;;;;;;;;5109722;28;20240;-81
2022/12/26 14:23:35;;;;;;;209.63;114.10;;;;;;;;;;5102106;28;20262;-81
2022/12/26 14:26:07;;;;;;;84.60;53.87;;;;;;;;;;5102639;28;20639;-80
2022/12/26 14:28:48;;;;;;;43.37;32.00;;;;;;;;;;5110914;28;20195;-80
2022/12/26 14:31:20;;;;;;;29.17;20.70;;;;;;;;;;5110847;28;20697;-80
2022/12/26 14:33:52;;;;;;;37.80;27.47;;;;;;;;;;5108830;28;20271;-80
2022/12/26 14:36:28;;;;;;;55.90;36.93;;;;;;;;;;5104808;28;20234;-80
2022/12/26 14:39:01;;;;;;;35.13;25.07;;;;;;;;;;5110037;28;20205;-81
2022/12/26 14:44:18;;;;;;;4.20;3.50;;;;;;;;;;5104477;28;20589;-80
2022/12/26 14:46:59;;;;;;;10.40;6.57;;;;;;;;;;5109081;28;20679;-80
2022/12/26 14:49:38;;;;;;;5.87;3.83;;;;;;;;;;5110960;28;20199;-80
2022/12/26 14:52:33;;;;;;;21.10;14.30;;;;;;;;;;5111923;28;20562;-80
2022/12/26 14:55:42;;;;;;;25.77;14.97;;;;;;;;;;5112319;28;20365;-81
2022/12/26 14:58:38;;;;;;;30.80;20.13;;;;;;;;;;5101403;28;20195;-80
2022/12/26 15:01:46;;;;;;;28.40;21.33;;;;;;;;;;5112296;28;20695;-80
2022/12/26 15:04:37;;;;;;;28.33;19.90;;;;;;;;;;5099020;27;20658;-80
2022/12/26 15:07:40;;;;;;;7.37;6.57;;;;;;;;;;5111965;28;20200;-80
2022/12/26 15:10:40;;;;;;;4.00;3.70;;;;;;;;;;5098828;28;20203;-80
2022/12/26 15:13:39;;;;;;;16.13;14.43;;;;;;;;;;5106449;28;20292;-80
2022/12/26 15:16:14;;;;;;;16.43;12.97;;;;;;;;;;5108527;27;20230;-80
2022/12/26 15:18:57;;;;;;;24.03;16.60;;;;;;;;;;5114203;27;20748;-81
2022/12/26 15:21:36;;;;;;;23.37;16.40;;;;;;;;;;5101364;28;20244;-80
2022/12/26 15:24:42;;;;;;;10.60;7.50;;;;;;;;;;5114170;28;20199;-79
2022/12/26 15:27:41;;;;;;;12.60;10.10;;;;;;;;;;5114354;28;20203;-79
2022/12/26 15:30:17;;;;;;;11.07;8.77;;;;;;;;;;5107641;28;20203;-79
2022/12/26 15:32:52;;;;;;;17.03;12.77;;;;;;;;;;5114194;28;20221;-79
2022/12/26 15:35:23;;;;;;;17.47;13.90;;;;;;;;;;5114130;28;20223;-79
2022/12/26 15:38:04;;;;;;;15.97;11.50;;;;;;;;;;5107298;27;20196;-79
2022/12/26 15:40:35;;;;;;;14.67;8.83;;;;;;;;;;5111913;28;20278;-79
2022/12/26 15:43:22;;;;;;;9.43;5.57;;;;;;;;;;5113982;28;20669;-80
2022/12/26 15:45:53;;;;;;;16.00;7.80;;;;;;;;;;5101318;28;20230;-79
2022/12/26 15:48:31;;;;;;;15.00;10.30;;;;;;;;;;5113959;28;20239;-79
2022/12/26 15:51:01;;;;;;;14.40;9.13;;;;;;;;;;5110005;28;20581;-79
2022/12/26 15:53:35;;;;;;;13.00;10.93;;;;;;;;;;5113740;28;20203;-80
2022/12/26 15:56:15;;;;;;;11.63;6.10;;;;;;;;;;5114039;28;20227;-79
2022/12/26 15:58:56;;;;;;;7.80;7.00;;;;;;;;;;5113751;28;20621;-79
2022/12/26 16:01:45;;;;;;;15.33;11.93;;;;;;;;;;5113800;28;20203;-79
2022/12/26 16:04:17;;;;;;;16.33;13.27;;;;;;;;;;5105618;28;20211;-79
2022/12/26 16:06:59;;;;;;;16.90;13.10;;;;;;;;;;5102764;27;20253;-79
2022/12/26 16:09:39;;;;;;;15.63;12.97;;;;;;;;;;5108330;28;20211;-79
2022/12/26 16:12:21;;;;;;;12.33;9.73;;;;;;;;;;5113637;28;20206;-80
2022/12/26 16:14:52;;;;;;;13.43;9.87;;;;;;;;;;5113466;28;20203;-80
2022/12/26 16:17:24;;;;;;;29.20;15.20;;;;;;;;;;5113024;28;20227;-80
2022/12/26 16:19:52;;;;;;;25.10;13.77;;;;;;;;;;5111107;28;20210;-79
2022/12/26 16:25:23;;;;;;;6.43;4.50;;;;;;;;;;5067856;28;20720;-80
2022/12/26 16:27:55;;;;;;;8.80;7.10;;;;;;;;;;5106540;28;20213;-80
2022/12/26 16:30:25;;;;;;;28.00;20.73;;;;;;;;;;5097297;28;20200;-80
2022/12/26 16:32:53;;;;;;;31.13;22.53;;;;;;;;;;5113303;28;20204;-79
2022/12/26 16:35:22;;;;;;;11.77;8.73;;;;;;;;;;5108416;28;20223;-80
2022/12/26 16:37:52;;;;;;;8.00;5.83;;;;;;;;;;5113413;28;20199;-79
2022/12/26 16:40:25;;;;;;;5.10;4.07;;;;;;;;;;5112774;28;20195;-80
2022/12/26 16:45:44;;;;;;;8.60;4.47;;;;;;;;;;5112671;28;20208;-80
2022/12/26 16:48:15;;;;;;;8.53;5.30;;;;;;;;;;5103411;28;20308;-79
2022/12/26 16:50:46;;;;;;;9.00;5.53;;;;;;;;;;5098034;28;21104;-79
2022/12/26 16:53:14;;;;;;;7.07;6.27;;;;;;;;;;5107243;28;20593;-79
2022/12/26 16:55:44;;;;;;;15.40;12.07;;;;;;;;;;5112626;28;20223;-80
2022/12/26 16:58:19;;;;;;;43.27;27.13;;;;;;;;;;5112203;27;20195;-80
2022/12/26 17:01:03;;;;;;;26.93;21.20;;;;;;;;;;5112816;28;20214;-79
2022/12/26 17:03:37;;;;;;;37.87;25.00;;;;;;;;;;5112456;28;20265;-79
2022/12/26 17:06:10;;;;;;;31.47;21.40;;;;;;;;;;5112395;28;20673;-80
2022/12/26 17:08:41;;;;;;;13.97;10.73;;;;;;;;;;5112169;28;20742;-79
2022/12/26 17:11:09;;;;;;;13.00;10.00;;;;;;;;;;5111359;27;20203;-79
2022/12/26 17:13:36;;;;;;;8.00;5.73;;;;;;;;;;5111888;28;20697;-80
2022/12/26 17:16:10;;;;;;;11.77;8.97;;;;;;;;;;5112100;28;20235;-80
2022/12/26 17:18:48;;;;;;;11.73;7.87;;;;;;;;;;5112120;28;20203;-80
2022/12/26 17:21:27;;;;;;;28.93;20.90;;;;;;;;;;5098645;28;20231;-80
2022/12/26 17:24:14;;;;;;;21.07;15.13;;;;;;;;;;5098904;28;20357;-79